Flight Track Log - Related Links

Times and Time Zones

All times are in EDT time to prevent confusion due to time zone crossing. See the N122RC flight status page for this flight to view local times or setup timezone preferences in your user account.

Time Position Orientation Groundspeed Altitude Reporting Facility
EDT Latitude Longitude Course Direction KTS MPH feet Rate Location/Type
Sat 11:26:16 PM 34.4108 -119.8406 224° Southwest 91 105 300  Level Los Angeles Center
Sat 11:27:23 PM 34.3869 -119.8689 224° Southwest 111 128 1,000 626 Climbing Los Angeles Center
Sat 11:28:11 PM 34.3711 -119.8883 225° Southwest 140 161 1,500 826 Climbing Los Angeles Center
Sat 11:29:12 PM 34.3503 -119.9242 235° Southwest 122 140 2,500 829 Climbing Los Angeles Center
Sat 11:30:14 PM 34.3556 -119.9636 279° West 119 137 3,200 683 Climbing Los Angeles Center
Sat 11:31:15 PM 34.3664 -120.0003 290° West 130 150 3,900 738 Climbing Los Angeles Center
Sat 11:32:16 PM 34.3989 -119.9992 North 122 140 4,700 738 Climbing Los Angeles Center
Sat 11:33:17 PM 34.4228 -119.9736 41° Northeast 116 133 5,400 689 Climbing Los Angeles Center
Sat 11:34:18 PM 34.4489 -119.9494 37° Northeast 117 135 6,100 683 Climbing Los Angeles Center
Sat 11:35:20 PM 34.4769 -119.9278 32° Northeast 123 142 6,800 585 Climbing Los Angeles Center
Sat 11:36:21 PM 34.5064 -119.9025 35° Northeast 123 142 7,300 344 Climbing Los Angeles Center
Sat 11:37:22 PM 34.5397 -119.8731 36° Northeast 138 159 7,500 393 Climbing Los Angeles Center
Sat 11:38:23 PM 34.5750 -119.8392 38° Northeast 155 178 8,100 689 Climbing Los Angeles Center
Sat 11:39:24 PM 34.6111 -119.8061 37° Northeast 148 170 8,900 590 Climbing Los Angeles Center
Sat 11:40:25 PM 34.6422 -119.7806 34° Northeast 137 158 9,300 295 Climbing Los Angeles Center
Sat 11:41:26 PM 34.6761 -119.7500 37° Northeast 149 171 9,500 146 Climbing Los Angeles Center
Sat 11:42:28 PM 34.7125 -119.7169 37° Northeast 161 185 9,600 49 Climbing Los Angeles Center
Sat 11:43:29 PM 34.7494 -119.6839 36° Northeast 165 190 9,600  Level Los Angeles Center
Sat 11:44:30 PM 34.7869 -119.6503 36° Northeast 168 193 9,600  Level Los Angeles Center
Sat 11:45:31 PM 34.8233 -119.6158 38° Northeast 168 193 9,600  Level Los Angeles Center
Sat 11:46:32 PM 34.8683 -119.5758 36° Northeast 169 194 9,600  Level Los Angeles Center
Sat 11:47:33 PM 34.9067 -119.5411 37° Northeast 170 196 9,600  Level Los Angeles Center
Sat 11:48:34 PM 34.9442 -119.5089 35° Northeast 168 193 9,600 -197 Level Los Angeles Center
Sat 11:49:35 PM 34.9794 -119.4722 40° Northeast 167 192 9,200 -585 Descending Los Angeles Center
Sat 11:50:37 PM 35.0156 -119.4300 44° Northeast 176 203 8,400 -683 Descending Los Angeles Center
Sat 11:51:38 PM 35.0497 -119.3900 44° Northeast 174 200 7,800 -590 Descending Los Angeles Center
Sat 11:52:39 PM 35.0817 -119.3486 47° Northeast 171 197 7,200 -639 Descending Los Angeles Center
Sat 11:53:40 PM 35.1139 -119.3078 46° Northeast 169 194 6,500 -639 Descending Los Angeles Center
Sat 11:54:41 PM 35.1478 -119.2681 44° Northeast 168 193 5,900 -639 Descending Los Angeles Center
Sat 11:55:42 PM 35.1803 -119.2275 46° Northeast 168 193 5,200 -689 Descending Los Angeles Center
Sat 11:56:43 PM 35.2181 -119.1797 46° Northeast 167 192 4,500 -492 Descending Los Angeles Center
Sat 11:57:44 PM 35.2467 -119.1419 47° Northeast 166 191 4,200 -295 Descending Los Angeles Center
Sat 11:59:00 PM 35.2903 -119.1233 19° North  Level FlightAware Approximate
Sun 12:06:00 AM 35.4333 -119.0500 29° Northeast  Level FlightAware Approximate
Sun 12:07:00 AM 35.4339 -119.0577 29° Northeast  Level Estimated
Sun 12:08:00 AM 35.4333 -119.0500 29° Northeast  Level FlightAware Approximate
Sun 12:09:00 AM 35.4339 -119.0577 29° Northeast  Level Estimated
Sun 12:10:00 AM 35.4333 -119.0500 29° Northeast  Level FlightAware Approximate
Sun 12:11:00 AM 35.4339 -119.0577 29° Northeast  Level Estimated
Sun 12:12:00 AM 35.4333 -119.0500 29° Northeast  Level FlightAware Approximate
Sun 12:13:00 AM 35.4339 -119.0577 29° Northeast  Level Estimated
Sun 12:14:00 AM 35.4333 -119.0500 29° Northeast  Level FlightAware Approximate

Login

Don't have an account? Register now (free) for customized features, flight alerts, and more!